Lake James, Indiana
Current Conditions -  °F | °C
As of 8:35 AM on Wednesday 22 Oct 2014 (Local Time) from KANQ Reporting Station
Overcast Overcast  
Wind Chill: 36°   Ceiling: 1900
Heat Index: 36°   Visibility: 10mi
Dew Point: 21°   Wind: 3mph
Humidity: 56%   Direction: 360°N
Pressure: 30.31"   Gusts: NA
Location:  41.6594°N, 85.0055°W
Report Text: KANQ 221235Z AUTO 36003KT 10SM OVC019 02/M06 A3031 RMK
Loading
Personal Weather Stations






























Interactive Weather Map
Tropical Storm Tracking
New forecast layout! Learn more

10-Day Weather Forecast

Advertisements
Track Severe Weather on mobile